createdAt,value
2022-10-22T00:01:09.435Z,79.05
2022-10-22T00:03:39.927Z,78.94
2022-10-22T00:06:07.903Z,78.78
2022-10-22T00:08:35.794Z,78.35
2022-10-22T00:11:22.061Z,78.28
2022-10-22T00:13:51.139Z,78.41
2022-10-22T00:16:19.033Z,78.38
2022-10-22T00:18:46.904Z,78.44
2022-10-22T00:21:14.669Z,78.56
2022-10-22T00:23:43.486Z,78.68
2022-10-22T00:26:12.098Z,78.95
2022-10-22T00:28:40.044Z,78.79
2022-10-22T00:31:08.061Z,78.79
2022-10-22T00:33:35.752Z,78.67
2022-10-22T00:36:03.738Z,78.82
2022-10-22T00:38:31.507Z,79.13
2022-10-22T00:40:59.328Z,79.36
2022-10-22T00:43:27.850Z,79.47
2022-10-22T00:45:55.735Z,79.53
2022-10-22T00:48:27.308Z,79.63
2022-10-22T00:51:08.366Z,79.69
2022-10-22T00:53:40.879Z,79.60
2022-10-22T00:56:10.335Z,79.79
2022-10-22T00:58:44.025Z,79.81
2022-10-22T01:01:16.703Z,79.93
2022-10-22T01:03:44.792Z,80.18
2022-10-22T01:06:20.147Z,80.13
2022-10-22T01:09:06.100Z,80.26
2022-10-22T01:11:52.838Z,80.40
2022-10-22T01:14:52.926Z,80.50
2022-10-22T01:17:26.324Z,80.28
2022-10-22T01:20:06.998Z,80.32
2022-10-22T01:22:47.751Z,80.28
2022-10-22T01:25:25.299Z,80.55
2022-10-22T01:28:11.442Z,80.47
2022-10-22T01:30:40.732Z,80.60
2022-10-22T01:33:12.711Z,80.60
2022-10-22T01:35:44.565Z,80.79
2022-10-22T01:38:17.485Z,80.96
2022-10-22T01:40:47.479Z,80.91
2022-10-22T01:43:15.681Z,81.06
2022-10-22T01:45:48.747Z,81.25
2022-10-22T01:48:35.133Z,81.16
2022-10-22T01:51:05.873Z,81.37
2022-10-22T01:53:41.190Z,81.32
2022-10-22T01:56:36.343Z,81.43
2022-10-22T01:59:08.572Z,81.51
2022-10-22T02:01:59.241Z,81.51
2022-10-22T02:04:33.877Z,81.57
2022-10-22T02:07:06.475Z,81.78
2022-10-22T02:09:35.870Z,81.80
2022-10-22T02:12:07.007Z,81.91
2022-10-22T02:14:39.562Z,82.17
2022-10-22T02:17:13.516Z,82.48
2022-10-22T02:19:55.919Z,82.41
2022-10-22T02:22:26.349Z,82.55
2022-10-22T02:24:54.037Z,82.57
2022-10-22T02:27:25.835Z,82.84
2022-10-22T02:30:28.056Z,82.95
2022-10-22T02:33:03.372Z,82.77
2022-10-22T02:35:32.440Z,82.79
2022-10-22T02:38:01.763Z,82.76
2022-10-22T02:40:31.487Z,82.28
2022-10-22T02:42:59.459Z,82.10
2022-10-22T02:45:27.451Z,81.98
2022-10-22T02:47:55.219Z,81.78
2022-10-22T02:50:22.931Z,81.74
2022-10-22T02:52:51.152Z,81.60
2022-10-22T02:55:19.003Z,81.74
2022-10-22T02:57:48.519Z,81.62
2022-10-22T03:00:18.458Z,81.47
2022-10-22T03:02:46.921Z,81.23
2022-10-22T03:05:15.743Z,81.15
2022-10-22T03:09:01.046Z,81.16
2022-10-22T06:21:31.208Z,80.03
2022-10-22T06:24:00.725Z,80.03
2022-10-22T06:26:29.802Z,79.93
2022-10-22T06:28:58.804Z,79.78
2022-10-22T06:31:27.999Z,79.83
2022-10-22T06:33:57.213Z,79.75
2022-10-22T06:36:25.199Z,79.80
2022-10-22T06:38:54.999Z,79.73
2022-10-22T06:41:28.568Z,79.77
2022-10-22T06:43:58.079Z,79.31
2022-10-22T06:46:26.864Z,79.12
2022-10-22T06:48:58.044Z,79.45
2022-10-22T06:51:27.853Z,79.24
2022-10-22T06:53:56.940Z,79.35
2022-10-22T06:56:27.248Z,79.00
2022-10-22T06:58:57.095Z,78.70
2022-10-22T07:01:27.678Z,78.83
2022-10-22T07:03:55.946Z,78.87
2022-10-22T07:06:25.927Z,78.80
2022-10-22T07:08:55.850Z,78.36
2022-10-22T07:11:43.058Z,77.92
2022-10-22T07:14:12.041Z,77.79
2022-10-22T07:16:43.207Z,77.93
2022-10-22T07:19:12.216Z,78.13
2022-10-22T07:21:40.072Z,78.37
2022-10-22T07:24:08.457Z,78.32
2022-10-22T07:26:37.150Z,78.49
2022-10-22T07:29:05.225Z,78.15
2022-10-22T07:31:33.014Z,78.42
2022-10-22T07:34:00.857Z,78.23
2022-10-22T07:36:28.726Z,78.28
2022-10-22T07:38:58.399Z,78.66
2022-10-22T07:41:28.704Z,78.45
2022-10-22T07:43:58.225Z,78.66
2022-10-22T07:46:27.358Z,78.38
2022-10-22T07:48:55.475Z,78.39
2022-10-22T07:51:23.639Z,78.25
2022-10-22T07:53:51.816Z,78.25
2022-10-22T07:56:45.158Z,78.14
2022-10-22T07:59:12.927Z,78.36
2022-10-22T08:01:40.790Z,78.38
2022-10-22T08:04:10.054Z,78.37
2022-10-22T08:06:38.792Z,78.23
2022-10-22T08:09:07.081Z,78.17
2022-10-22T08:11:35.722Z,78.30
2022-10-22T08:14:04.052Z,78.25
2022-10-22T08:16:32.025Z,78.19
2022-10-22T08:18:59.972Z,77.81
2022-10-22T08:21:27.859Z,77.96
2022-10-22T08:23:55.790Z,78.07
2022-10-22T08:26:24.013Z,77.95
2022-10-22T08:28:51.887Z,78.06
2022-10-22T08:31:19.652Z,77.97
2022-10-22T08:33:47.407Z,78.10
2022-10-22T08:36:15.720Z,78.00
2022-10-22T08:38:43.536Z,78.03
2022-10-22T08:41:18.440Z,78.10
2022-10-22T08:44:05.001Z,78.01
2022-10-22T08:47:03.189Z,78.04
2022-10-22T08:49:39.851Z,77.75
2022-10-22T08:52:18.199Z,77.50
2022-10-22T08:54:49.039Z,77.77
2022-10-22T08:57:41.864Z,77.91
2022-10-22T09:00:19.346Z,77.40
2022-10-22T09:02:53.653Z,77.33
2022-10-22T09:05:34.403Z,77.15
2022-10-22T09:08:02.677Z,77.39
2022-10-22T09:10:36.302Z,77.31
2022-10-22T09:13:04.342Z,77.43
2022-10-22T09:15:32.104Z,77.27
2022-10-22T09:18:31.200Z,77.48
2022-10-22T09:22:15.117Z,77.30
2022-10-22T09:24:48.734Z,77.31
2022-10-22T09:27:26.411Z,77.59
2022-10-22T09:29:54.087Z,77.55
2022-10-22T09:32:21.902Z,77.39
2022-10-22T09:34:55.205Z,77.31
2022-10-22T09:40:47.512Z,76.89
2022-10-22T09:43:15.606Z,76.88
2022-10-22T09:45:44.720Z,76.84
2022-10-22T09:48:15.354Z,76.49
2022-10-22T09:50:55.091Z,76.34
2022-10-22T09:53:28.746Z,76.64
2022-10-22T09:55:59.640Z,76.52
2022-10-22T09:58:28.671Z,76.37
2022-10-22T10:01:00.720Z,76.16
2022-10-22T10:03:32.134Z,75.85
2022-10-22T10:06:06.191Z,75.83
2022-10-22T10:08:34.324Z,75.69
2022-10-22T10:11:10.705Z,75.47
2022-10-22T10:13:56.878Z,75.21
2022-10-22T10:16:59.204Z,75.41
2022-10-22T10:19:47.009Z,75.58
2022-10-22T10:22:32.196Z,75.50
2022-10-22T10:25:12.902Z,75.65
2022-10-22T10:27:53.750Z,75.09
2022-10-22T10:30:25.774Z,75.20
2022-10-22T10:33:02.454Z,75.32
2022-10-22T10:35:42.378Z,75.70
2022-10-22T10:38:32.415Z,75.66
2022-10-22T10:41:08.158Z,76.08
2022-10-22T10:43:52.491Z,76.19
2022-10-22T10:46:40.250Z,76.04
2022-10-22T10:49:19.053Z,76.08
2022-10-22T10:51:58.743Z,76.02
2022-10-22T10:54:40.813Z,76.29
2022-10-22T10:57:33.452Z,76.48
2022-10-22T11:00:07.748Z,76.53
2022-10-22T11:03:11.815Z,76.55
2022-10-22T11:05:44.433Z,76.80
2022-10-22T11:08:20.254Z,76.78
2022-10-22T11:10:54.485Z,76.86
2022-10-22T11:13:45.348Z,76.79
2022-10-22T11:16:31.262Z,76.74
2022-10-22T11:19:59.831Z,76.90
2022-10-22T11:22:36.783Z,77.36
2022-10-22T11:25:13.596Z,77.30
2022-10-22T11:27:54.213Z,77.07
2022-10-22T11:30:24.176Z,76.79
2022-10-22T11:32:57.295Z,76.26
2022-10-22T11:35:31.794Z,76.44
2022-10-22T11:38:01.022Z,76.73
2022-10-22T11:40:28.758Z,76.65
2022-10-22T11:43:05.239Z,76.09
2022-10-22T11:45:42.513Z,76.16
2022-10-22T11:48:10.284Z,76.01
2022-10-22T11:50:56.695Z,75.74
2022-10-22T11:53:36.392Z,75.86
2022-10-22T11:56:06.953Z,75.51
2022-10-22T11:58:42.209Z,75.29
2022-10-22T12:01:10.061Z,75.54
2022-10-22T12:03:44.025Z,75.70
2022-10-22T12:06:19.821Z,75.45
2022-10-22T12:08:50.612Z,75.54
2022-10-22T12:11:37.462Z,75.44
2022-10-22T12:14:16.481Z,75.20
2022-10-22T12:16:57.541Z,75.47
2022-10-22T12:19:40.838Z,75.53
2022-10-22T12:22:24.098Z,75.68
2022-10-22T12:24:54.629Z,75.50
2022-10-22T12:27:27.627Z,75.30
2022-10-22T12:30:00.295Z,75.53
2022-10-22T12:32:37.377Z,75.34
2022-10-22T12:35:09.259Z,75.53
2022-10-22T12:37:38.374Z,75.47
2022-10-22T12:40:22.724Z,75.67
2022-10-22T12:43:16.150Z,75.60
2022-10-22T12:45:46.127Z,75.81
2022-10-22T12:48:28.387Z,75.99
2022-10-22T12:50:59.781Z,75.84
2022-10-22T12:53:32.191Z,76.04
2022-10-22T12:56:04.362Z,75.82
2022-10-22T12:58:48.789Z,76.00
2022-10-22T13:01:18.570Z,76.02
2022-10-22T13:03:50.695Z,75.90
2022-10-22T13:06:18.347Z,75.40
2022-10-22T13:09:19.118Z,75.30
2022-10-22T13:11:58.268Z,75.46
2022-10-22T13:14:31.765Z,75.51
2022-10-22T13:17:18.531Z,75.52
2022-10-22T13:20:20.461Z,75.69
2022-10-22T13:23:03.370Z,75.87
2022-10-22T13:25:37.386Z,75.62
2022-10-22T13:28:08.225Z,75.75
2022-10-22T13:30:38.126Z,76.03
2022-10-22T13:33:20.247Z,75.73
2022-10-22T13:35:48.133Z,75.80
2022-10-22T13:38:19.643Z,75.74
2022-10-22T13:40:48.146Z,75.93
2022-10-22T13:43:16.781Z,75.91
2022-10-22T13:45:46.123Z,76.01
2022-10-22T13:48:16.264Z,76.11
2022-10-22T13:50:44.132Z,76.08
2022-10-22T13:53:37.945Z,76.30
2022-10-22T13:56:05.725Z,76.06
2022-10-22T13:58:33.433Z,75.90
2022-10-22T14:01:02.630Z,76.02
2022-10-22T14:03:34.398Z,76.21
2022-10-22T14:06:02.264Z,76.14
2022-10-22T14:08:30.097Z,76.02
2022-10-22T14:10:57.922Z,75.85
2022-10-22T14:13:26.710Z,76.17
2022-10-22T14:15:54.576Z,76.16
2022-10-22T14:18:27.560Z,76.02
2022-10-22T14:20:58.960Z,76.47
2022-10-22T14:23:31.539Z,76.43
2022-10-22T14:26:00.821Z,76.51
2022-10-22T14:28:31.381Z,76.56
2022-10-22T14:31:00.228Z,76.24
2022-10-22T14:33:32.109Z,76.32
2022-10-22T14:36:01.277Z,76.27
2022-10-22T14:38:29.668Z,76.22
2022-10-22T14:40:59.583Z,76.30
2022-10-22T14:43:31.020Z,76.27
2022-10-22T14:45:59.400Z,76.14
2022-10-22T14:48:27.103Z,76.15
2022-10-22T14:50:55.231Z,76.10
2022-10-22T14:53:23.025Z,76.24
2022-10-22T14:55:51.622Z,76.29
2022-10-22T14:58:19.571Z,76.39
2022-10-22T15:00:47.315Z,76.34
2022-10-22T15:03:15.030Z,76.56
2022-10-22T15:05:44.943Z,76.37
2022-10-22T15:08:14.759Z,76.36
2022-10-22T15:10:42.774Z,76.09
2022-10-22T15:13:10.967Z,75.72
2022-10-22T15:15:42.156Z,76.14
2022-10-22T15:18:09.928Z,76.01
2022-10-22T15:20:37.749Z,76.44
2022-10-22T15:23:05.523Z,76.45
2022-10-22T15:25:33.436Z,76.59
2022-10-22T15:28:09.165Z,76.80
2022-10-22T15:30:37.823Z,76.73
2022-10-22T15:33:06.454Z,76.70
2022-10-22T15:35:34.437Z,76.74
2022-10-22T15:38:02.630Z,76.97
2022-10-22T15:40:30.338Z,76.97
2022-10-22T15:42:58.173Z,77.05
2022-10-22T15:45:25.854Z,77.04
2022-10-22T15:47:53.603Z,77.13
2022-10-22T15:50:21.356Z,77.12
2022-10-22T15:52:49.084Z,76.95
2022-10-22T15:55:16.999Z,77.37
2022-10-22T15:57:45.170Z,77.28
2022-10-22T16:00:14.032Z,77.13
2022-10-22T16:02:43.888Z,77.13
2022-10-22T16:05:11.655Z,76.99
2022-10-22T16:07:39.700Z,77.08
2022-10-22T16:10:08.204Z,77.02
2022-10-22T16:12:36.079Z,77.29
2022-10-22T16:15:04.587Z,77.13
2022-10-22T16:17:33.245Z,77.28
2022-10-22T16:20:01.072Z,77.26
2022-10-22T16:22:28.963Z,77.30
2022-10-22T16:24:56.668Z,77.11
2022-10-22T16:27:24.440Z,77.34
2022-10-22T16:29:52.103Z,77.43
2022-10-22T16:32:19.781Z,77.24
2022-10-22T16:34:47.507Z,77.14
2022-10-22T16:37:15.206Z,77.37
2022-10-22T16:39:42.979Z,77.41
2022-10-22T16:42:10.744Z,77.60
2022-10-22T16:44:38.441Z,77.44
2022-10-22T16:47:06.182Z,77.33
2022-10-22T16:49:33.870Z,77.65
2022-10-22T16:52:01.554Z,77.48
2022-10-22T16:54:29.587Z,77.63
2022-10-22T16:56:57.357Z,77.93
2022-10-22T16:59:25.228Z,77.94
2022-10-22T17:01:54.667Z,77.95
2022-10-22T17:04:23.670Z,77.91
2022-10-22T17:06:51.503Z,77.82
2022-10-22T17:09:19.562Z,77.70
2022-10-22T17:11:47.552Z,77.98
2022-10-22T17:14:15.248Z,77.84
2022-10-22T17:16:43.394Z,77.71
2022-10-22T17:19:14.536Z,77.77
2022-10-22T17:21:42.892Z,77.80
2022-10-22T17:24:10.700Z,77.82
2022-10-22T17:26:38.564Z,77.76
2022-10-22T17:29:06.948Z,77.75
2022-10-22T17:31:39.958Z,78.00
2022-10-22T17:34:14.768Z,77.78
2022-10-22T17:36:43.462Z,77.64
2022-10-22T17:39:15.725Z,77.57
2022-10-22T17:41:43.494Z,77.74
2022-10-22T17:44:12.408Z,77.70
2022-10-22T17:46:40.136Z,77.75
2022-10-22T17:49:19.754Z,77.75
2022-10-22T17:51:48.286Z,77.78
2022-10-22T17:54:16.082Z,77.86
2022-10-22T17:56:43.791Z,78.05
2022-10-22T17:59:14.251Z,78.09
2022-10-22T18:01:45.780Z,78.30
2022-10-22T18:04:16.583Z,78.25
2022-10-22T18:06:47.061Z,78.36
2022-10-22T18:09:18.485Z,78.35
2022-10-22T18:11:49.018Z,78.03
2022-10-22T18:14:18.181Z,78.32
2022-10-22T18:16:46.922Z,78.29
2022-10-22T18:19:17.469Z,78.20
2022-10-22T18:21:45.762Z,78.33
2022-10-22T18:24:15.437Z,78.13
2022-10-22T18:26:43.420Z,78.44
2022-10-22T18:29:16.946Z,78.36
2022-10-22T18:31:45.330Z,78.38
2022-10-22T18:34:16.546Z,78.51
2022-10-22T18:36:46.905Z,78.55
2022-10-22T18:39:15.902Z,78.81
2022-10-22T18:41:43.874Z,78.92
2022-10-22T18:44:14.117Z,78.97
2022-10-22T18:46:42.858Z,79.18
2022-10-22T18:49:18.338Z,79.32
2022-10-22T18:51:52.536Z,79.43
2022-10-22T18:54:24.011Z,79.68
2022-10-22T18:56:55.540Z,79.84
2022-10-22T18:59:27.319Z,80.02
2022-10-22T19:01:59.453Z,79.90
2022-10-22T19:04:33.282Z,79.89
2022-10-22T19:07:01.208Z,79.72
2022-10-22T19:09:29.154Z,79.67
2022-10-22T19:11:56.909Z,79.80
2022-10-22T19:14:24.651Z,79.83
2022-10-22T19:16:52.436Z,80.02
2022-10-22T19:19:21.995Z,79.94
2022-10-22T19:21:50.153Z,80.18
2022-10-22T19:24:19.845Z,80.20
2022-10-22T19:26:49.047Z,80.08
2022-10-22T19:29:19.724Z,79.90
2022-10-22T19:31:50.616Z,80.04
2022-10-22T19:34:19.620Z,79.92
2022-10-22T19:36:47.953Z,80.25
2022-10-22T19:39:16.693Z,80.15
2022-10-22T19:41:45.496Z,80.28
2022-10-22T19:44:13.554Z,80.35
2022-10-22T19:46:41.294Z,80.45
2022-10-22T19:49:10.003Z,80.43
2022-10-22T19:51:38.094Z,80.56
2022-10-22T19:54:10.248Z,80.61
2022-10-22T19:56:38.443Z,80.83
2022-10-22T19:59:07.031Z,81.00
2022-10-22T20:01:34.988Z,81.05
2022-10-22T20:04:03.493Z,81.02
2022-10-22T20:06:31.230Z,80.92
2022-10-22T20:08:59.171Z,81.10
2022-10-22T20:11:29.764Z,81.22
2022-10-22T20:13:58.251Z,80.86
2022-10-22T20:16:29.899Z,80.76
2022-10-22T20:19:03.872Z,80.82
2022-10-22T20:21:31.895Z,80.66
2022-10-22T20:24:00.482Z,80.76
2022-10-22T20:26:29.223Z,80.74
2022-10-22T20:28:58.151Z,80.83
2022-10-22T20:31:28.663Z,81.01
2022-10-22T20:33:58.755Z,80.95
2022-10-22T20:36:27.617Z,80.99
2022-10-22T20:39:03.670Z,81.10
2022-10-22T20:41:34.094Z,80.94
2022-10-22T20:44:02.081Z,80.90
2022-10-22T20:46:31.764Z,80.93
2022-10-22T20:49:27.186Z,81.17
2022-10-22T20:51:54.880Z,81.32
2022-10-22T20:54:22.714Z,81.44
2022-10-22T20:56:50.693Z,81.57
2022-10-22T20:59:18.864Z,81.09
2022-10-22T21:01:49.715Z,81.31
2022-10-22T21:04:19.867Z,81.18
2022-10-22T21:06:49.950Z,81.26
2022-10-22T21:09:17.739Z,81.30
2022-10-22T21:11:46.192Z,81.48
2022-10-22T21:14:15.903Z,81.43
2022-10-22T21:16:46.145Z,81.54
2022-10-22T21:19:13.825Z,81.57
2022-10-22T21:21:42.061Z,81.62
2022-10-22T21:24:10.373Z,81.49
2022-10-22T21:26:39.897Z,81.73
2022-10-22T21:29:08.469Z,81.68
2022-10-22T21:31:37.888Z,81.73
2022-10-22T21:34:05.584Z,81.98
2022-10-22T21:36:33.393Z,81.78
2022-10-22T21:39:01.399Z,81.86
2022-10-22T21:41:29.363Z,81.78
2022-10-22T21:43:57.129Z,81.83
2022-10-22T21:46:27.989Z,81.79
2022-10-22T21:48:58.632Z,81.60
2022-10-22T21:51:26.796Z,81.44
2022-10-22T21:53:55.206Z,81.66
2022-10-22T21:56:29.171Z,81.32
2022-10-22T21:58:57.054Z,81.40
2022-10-22T22:01:25.367Z,81.47
2022-10-22T22:03:53.723Z,81.12
2022-10-22T22:06:24.663Z,81.15
2022-10-22T22:08:54.937Z,81.24
2022-10-22T22:11:26.034Z,81.25
2022-10-22T22:13:55.609Z,81.36
2022-10-22T22:16:29.337Z,81.43
2022-10-22T22:18:59.607Z,81.38
2022-10-22T22:21:28.046Z,81.35
2022-10-22T22:23:57.129Z,81.53
2022-10-22T22:26:29.612Z,81.46
2022-10-22T22:28:59.790Z,81.95
2022-10-22T22:31:31.050Z,81.68
2022-10-22T22:34:13.413Z,81.66
2022-10-22T22:36:46.980Z,81.59
2022-10-22T22:39:23.872Z,81.39
2022-10-22T22:41:51.872Z,81.26
2022-10-22T22:44:19.599Z,81.07
2022-10-22T22:46:47.306Z,81.15
2022-10-22T22:49:15.152Z,81.14
2022-10-22T22:51:43.552Z,81.13
2022-10-22T22:54:11.508Z,80.98
2022-10-22T22:56:39.269Z,81.30
2022-10-22T22:59:07.164Z,81.16
2022-10-22T23:01:38.015Z,81.04
2022-10-22T23:04:11.180Z,80.76
2022-10-22T23:06:39.499Z,80.87
2022-10-22T23:09:09.556Z,80.90
2022-10-22T23:11:38.370Z,80.83
2022-10-22T23:14:08.240Z,80.85
2022-10-22T23:16:37.911Z,81.00
2022-10-22T23:19:06.298Z,80.86
2022-10-22T23:21:37.022Z,80.96
2022-10-22T23:24:08.038Z,81.00
2022-10-22T23:26:39.653Z,81.12
2022-10-22T23:29:11.960Z,81.06
2022-10-22T23:31:39.877Z,80.94
2022-10-22T23:34:09.553Z,80.71
2022-10-22T23:36:38.934Z,80.79
2022-10-22T23:39:08.998Z,80.54
2022-10-22T23:41:36.961Z,80.47
2022-10-22T23:44:05.757Z,80.39
2022-10-22T23:46:34.402Z,80.27
2022-10-22T23:49:02.240Z,80.22
2022-10-22T23:51:29.957Z,80.23
2022-10-22T23:53:59.895Z,80.12
2022-10-22T23:56:28.139Z,80.34
2022-10-22T23:58:56.997Z,80.50
